createdAt,value
2019-01-06T00:00:53.967Z,8.78
2019-01-06T00:03:54.648Z,9.10
2019-01-06T00:06:55.667Z,8.93
2019-01-06T00:09:54.051Z,9.33
2019-01-06T00:12:47.065Z,8.88
2019-01-06T00:15:51.567Z,8.60
2019-01-06T00:18:52.272Z,8.18
2019-01-06T00:21:53.230Z,8.85
2019-01-06T00:24:55.009Z,8.93
2019-01-06T00:27:50.017Z,9.13
2019-01-06T00:30:50.516Z,8.60
2019-01-06T00:33:51.636Z,9.70
2019-01-06T00:36:53.156Z,10.03
2019-01-06T00:39:54.001Z,9.85
2019-01-06T00:42:51.251Z,10.13
2019-01-06T00:45:51.632Z,10.15
2019-01-06T00:48:52.503Z,10.13
2019-01-06T00:51:59.107Z,10.90
2019-01-06T00:54:51.956Z,10.75
2019-01-06T00:57:56.108Z,11.60
2019-01-06T01:00:56.763Z,10.95
2019-01-06T01:03:57.712Z,11.60
2019-01-06T01:07:02.588Z,11.78
2019-01-06T01:10:03.096Z,11.40
2019-01-06T01:13:03.774Z,11.97
2019-01-06T01:16:04.423Z,11.78
2019-01-06T01:19:03.361Z,12.05
2019-01-06T01:22:07.379Z,12.30
2019-01-06T01:25:08.196Z,12.33
2019-01-06T01:28:09.196Z,12.10
2019-01-06T01:31:10.049Z,12.07
2019-01-06T01:34:06.340Z,12.10
2019-01-06T01:37:00.136Z,11.83
2019-01-06T01:40:00.512Z,11.60
2019-01-06T01:43:01.616Z,11.35
2019-01-06T01:46:02.012Z,11.65
2019-01-06T01:48:50.792Z,11.48
2019-01-06T01:51:38.718Z,11.50
2019-01-06T01:54:22.110Z,11.35
2019-01-06T01:57:11.003Z,12.20
2019-01-06T02:00:02.543Z,12.60
2019-01-06T02:02:56.663Z,11.63
2019-01-06T02:05:43.938Z,11.30
2019-01-06T02:08:44.862Z,11.80
2019-01-06T02:11:37.507Z,11.38
2019-01-06T02:14:22.342Z,11.50
2019-01-06T02:17:16.950Z,11.57
2019-01-06T02:20:14.990Z,11.73
2019-01-06T02:23:16.180Z,11.12
2019-01-06T02:26:05.209Z,11.43
2019-01-06T02:28:54.627Z,11.30
2019-01-06T02:31:48.745Z,11.15
2019-01-06T02:34:36.255Z,11.88
2019-01-06T02:37:23.849Z,11.55
2019-01-06T02:40:23.549Z,11.70
2019-01-06T02:43:27.712Z,11.25
2019-01-06T02:46:25.529Z,11.78
2019-01-06T02:49:12.949Z,11.65
2019-01-06T02:52:14.456Z,11.87
2019-01-06T02:55:18.336Z,11.30
2019-01-06T02:58:19.666Z,10.93
2019-01-06T03:01:11.250Z,11.05
2019-01-06T03:03:52.889Z,11.53
2019-01-06T03:06:36.930Z,11.40
2019-01-06T03:09:26.549Z,11.33
2019-01-06T03:12:20.531Z,10.55
2019-01-06T03:15:09.320Z,11.30
2019-01-06T03:18:16.286Z,10.85
2019-01-06T03:21:08.006Z,11.15
2019-01-06T03:24:11.814Z,11.22
2019-01-06T03:26:52.183Z,10.88
2019-01-06T03:29:39.517Z,11.20
2019-01-06T03:32:38.673Z,10.30
2019-01-06T03:35:20.996Z,10.85
2019-01-06T03:38:12.566Z,10.93
2019-01-06T03:41:00.376Z,10.85
2019-01-06T03:43:41.394Z,10.57
2019-01-06T03:46:30.205Z,10.73
2019-01-06T03:49:18.993Z,10.50
2019-01-06T03:52:07.771Z,9.83
2019-01-06T03:54:54.809Z,10.18
2019-01-06T03:57:42.100Z,10.23
2019-01-06T04:00:32.620Z,9.60
2019-01-06T04:03:18.379Z,9.15
2019-01-06T04:06:11.930Z,9.65
2019-01-06T04:08:59.201Z,10.32
2019-01-06T04:11:50.583Z,9.63
2019-01-06T04:14:32.124Z,9.63
2019-01-06T04:17:32.916Z,10.33
2019-01-06T04:20:20.316Z,10.78
2019-01-06T04:23:08.331Z,10.45
2019-01-06T04:25:55.834Z,10.43
2019-01-06T04:28:44.639Z,10.80
2019-01-06T04:31:43.038Z,10.55
2019-01-06T04:34:24.869Z,10.15
2019-01-06T04:37:12.147Z,10.93
2019-01-06T04:40:13.221Z,10.55
2019-01-06T04:43:00.000Z,10.50
2019-01-06T04:45:47.510Z,11.18
2019-01-06T04:48:35.076Z,10.95
2019-01-06T04:51:22.653Z,11.20
2019-01-06T04:54:09.804Z,11.48
2019-01-06T04:56:52.638Z,11.20
2019-01-06T04:59:40.515Z,10.93
2019-01-06T05:02:38.369Z,10.90
2019-01-06T05:05:33.156Z,11.28
2019-01-06T05:08:21.936Z,11.38
2019-01-06T05:11:10.410Z,10.25
2019-01-06T05:14:04.988Z,10.70
2019-01-06T05:16:57.927Z,11.05
2019-01-06T05:19:45.198Z,10.70
2019-01-06T05:22:36.774Z,10.65
2019-01-06T05:25:24.463Z,11.03
2019-01-06T05:28:25.376Z,11.35
2019-01-06T05:31:12.729Z,11.20
2019-01-06T05:34:10.854Z,11.08
2019-01-06T05:36:59.889Z,12.33
2019-01-06T05:39:47.133Z,11.65
2019-01-06T05:42:54.209Z,12.33
2019-01-06T05:45:41.948Z,11.88
2019-01-06T05:48:24.155Z,11.95
2019-01-06T05:51:23.467Z,12.15
2019-01-06T05:54:10.971Z,11.73
2019-01-06T05:57:11.764Z,11.78
2019-01-06T05:59:56.651Z,11.63
2019-01-06T06:02:38.672Z,11.57
2019-01-06T06:05:27.970Z,11.35
2019-01-06T06:08:13.655Z,11.65
2019-01-06T06:11:02.407Z,11.90
2019-01-06T06:13:54.203Z,11.40
2019-01-06T06:17:00.923Z,11.60
2019-01-06T06:19:52.704Z,11.50
2019-01-06T06:22:40.007Z,11.78
2019-01-06T06:25:27.355Z,11.80
2019-01-06T06:28:14.553Z,11.43
2019-01-06T06:30:59.672Z,12.05
2019-01-06T06:33:57.390Z,11.15
2019-01-06T06:36:49.251Z,11.93
2019-01-06T06:39:36.465Z,11.85
2019-01-06T06:42:16.879Z,12.20
2019-01-06T06:45:04.087Z,12.20
2019-01-06T06:47:47.052Z,12.43
2019-01-06T06:50:31.560Z,12.30
2019-01-06T06:53:26.335Z,12.00
2019-01-06T06:56:27.743Z,12.70
2019-01-06T06:59:16.714Z,12.68
2019-01-06T07:02:44.343Z,12.40
2019-01-06T07:05:42.276Z,13.05
2019-01-06T07:08:38.576Z,13.03
2019-01-06T07:11:20.526Z,12.50
2019-01-06T07:14:05.845Z,12.53
2019-01-06T07:17:24.687Z,13.30
2019-01-06T07:20:12.348Z,13.30
2019-01-06T07:23:19.334Z,13.22
2019-01-06T07:26:06.945Z,12.82
2019-01-06T07:28:58.818Z,12.53
2019-01-06T07:31:50.677Z,12.58
2019-01-06T07:34:57.911Z,12.43
2019-01-06T07:37:41.678Z,13.13
2019-01-06T07:40:29.126Z,13.37
2019-01-06T07:43:10.498Z,13.68
2019-01-06T07:45:58.242Z,14.55
2019-01-06T07:48:47.053Z,15.28
2019-01-06T07:51:29.782Z,14.35
2019-01-06T07:54:26.594Z,15.30
2019-01-06T07:57:14.257Z,15.45
2019-01-06T08:00:14.990Z,15.25
2019-01-06T08:02:57.225Z,16.07
2019-01-06T08:05:49.194Z,17.10
2019-01-06T08:08:46.975Z,16.70
2019-01-06T08:11:34.725Z,17.20
2019-01-06T08:14:20.552Z,17.05
2019-01-06T08:17:15.322Z,17.27
2019-01-06T08:20:10.777Z,17.47
2019-01-06T08:23:11.177Z,17.80
2019-01-06T08:25:59.895Z,17.52
2019-01-06T08:28:47.281Z,19.20
2019-01-06T08:31:44.177Z,18.17
2019-01-06T08:34:48.171Z,18.30
2019-01-06T08:37:36.977Z,18.50
2019-01-06T08:40:20.440Z,19.02
2019-01-06T08:43:21.744Z,19.60
2019-01-06T08:46:28.572Z,18.52
2019-01-06T08:49:16.051Z,18.98
2019-01-06T08:52:04.958Z,19.43
2019-01-06T08:54:53.797Z,19.23
2019-01-06T08:57:41.486Z,18.70
2019-01-06T09:00:30.545Z,19.10
2019-01-06T09:03:35.193Z,19.60
2019-01-06T09:06:22.746Z,19.85
2019-01-06T09:09:15.781Z,19.45
2019-01-06T09:12:11.577Z,18.95
2019-01-06T09:14:59.237Z,19.30
2019-01-06T09:17:48.102Z,18.95
2019-01-06T09:20:51.891Z,18.98
2019-01-06T09:23:43.364Z,17.43
2019-01-06T09:26:30.918Z,18.77
2019-01-06T09:29:18.493Z,17.43
2019-01-06T09:32:04.833Z,18.32
2019-01-06T09:34:46.627Z,16.53
2019-01-06T09:37:37.290Z,17.45
2019-01-06T09:40:18.529Z,16.25
2019-01-06T09:43:10.703Z,16.12
2019-01-06T09:46:11.732Z,15.72
2019-01-06T09:48:58.717Z,16.05
2019-01-06T09:51:53.288Z,16.13
2019-01-06T09:55:00.342Z,15.78
2019-01-06T09:57:49.575Z,15.18
2019-01-06T10:00:41.206Z,14.38
2019-01-06T10:03:32.980Z,14.23
2019-01-06T10:06:39.684Z,14.68
2019-01-06T10:09:37.875Z,14.83
2019-01-06T10:12:24.590Z,14.47
2019-01-06T10:15:12.292Z,13.68
2019-01-06T10:18:13.280Z,13.40
2019-01-06T10:21:07.877Z,13.43
2019-01-06T10:23:55.343Z,13.48
2019-01-06T10:26:37.842Z,12.63
2019-01-06T10:29:32.475Z,12.95
2019-01-06T10:32:21.557Z,13.15
2019-01-06T10:35:25.258Z,13.63
2019-01-06T10:38:22.592Z,12.90
2019-01-06T10:41:01.618Z,13.30
2019-01-06T10:43:57.859Z,13.00
2019-01-06T10:46:45.733Z,13.00
2019-01-06T10:49:29.059Z,13.13
2019-01-06T10:52:14.630Z,12.85
2019-01-06T10:55:01.911Z,12.93
2019-01-06T10:57:50.695Z,13.08
2019-01-06T11:00:38.289Z,13.28
2019-01-06T11:03:25.786Z,13.40
2019-01-06T11:06:09.527Z,13.93
2019-01-06T11:08:55.873Z,14.63
2019-01-06T11:11:43.164Z,14.73
2019-01-06T11:14:37.969Z,14.38
2019-01-06T11:17:25.492Z,15.23
2019-01-06T11:20:11.584Z,15.13
2019-01-06T11:22:59.023Z,14.60
2019-01-06T11:25:42.923Z,15.35
2019-01-06T11:28:31.960Z,15.03
2019-01-06T11:31:35.691Z,15.78
2019-01-06T11:34:24.539Z,16.10
2019-01-06T11:37:13.330Z,16.57
2019-01-06T11:40:11.343Z,14.73
2019-01-06T11:43:11.951Z,14.95
2019-01-06T11:46:09.683Z,13.90
2019-01-06T11:48:57.227Z,14.50
2019-01-06T11:51:44.611Z,13.65
2019-01-06T11:54:45.331Z,13.23
2019-01-06T11:57:36.608Z,13.55
2019-01-06T12:00:20.412Z,13.80
2019-01-06T12:03:03.878Z,13.20
2019-01-06T12:05:46.054Z,13.50
2019-01-06T12:08:46.739Z,13.20
2019-01-06T12:11:32.976Z,12.10
2019-01-06T12:14:21.748Z,12.13
2019-01-06T12:17:05.652Z,12.50
2019-01-06T12:19:52.948Z,11.95
2019-01-06T12:22:56.663Z,11.10
2019-01-06T12:25:53.470Z,11.05
2019-01-06T12:28:45.053Z,11.10
2019-01-06T12:31:33.831Z,11.03
2019-01-06T12:34:21.248Z,10.53
2019-01-06T12:37:21.839Z,10.55
2019-01-06T12:40:17.151Z,10.00
2019-01-06T12:43:17.634Z,9.53
2019-01-06T12:46:15.581Z,10.08
2019-01-06T12:49:02.898Z,8.85
2019-01-06T12:52:09.536Z,9.50
2019-01-06T12:54:52.376Z,9.10
2019-01-06T12:57:44.661Z,9.58
2019-01-06T13:00:32.544Z,9.80
2019-01-06T13:03:20.314Z,8.50
2019-01-06T13:06:09.152Z,9.23
2019-01-06T13:09:10.851Z,8.23
2019-01-06T13:11:58.211Z,8.23
2019-01-06T13:14:46.350Z,8.38
2019-01-06T13:17:41.376Z,8.90
2019-01-06T13:20:29.128Z,9.20
2019-01-06T13:23:24.187Z,9.35
2019-01-06T13:26:20.576Z,8.95
2019-01-06T13:29:21.480Z,8.43
2019-01-06T13:32:13.325Z,7.70
2019-01-06T13:35:01.009Z,7.30
2019-01-06T13:37:53.112Z,6.67
2019-01-06T13:40:48.180Z,5.87
2019-01-06T13:43:32.523Z,6.10
2019-01-06T13:46:17.871Z,6.30
2019-01-06T13:49:05.395Z,6.20
2019-01-06T13:51:49.166Z,6.30
2019-01-06T13:55:00.105Z,5.40
2019-01-06T13:57:54.247Z,5.65
2019-01-06T14:00:41.541Z,5.85
2019-01-06T14:03:23.387Z,5.87
2019-01-06T14:06:15.761Z,5.40
2019-01-06T14:09:19.047Z,5.53
2019-01-06T14:12:22.783Z,5.47
2019-01-06T14:15:09.751Z,5.58
2019-01-06T14:18:13.459Z,5.10
2019-01-06T14:21:00.759Z,4.90
2019-01-06T14:23:48.413Z,5.08
2019-01-06T14:26:46.397Z,5.63
2019-01-06T14:29:35.201Z,4.90
2019-01-06T14:32:26.012Z,5.10
2019-01-06T14:35:14.166Z,5.67
2019-01-06T14:37:54.706Z,4.90
2019-01-06T14:40:41.851Z,5.10
2019-01-06T14:43:39.450Z,5.08
2019-01-06T14:46:34.309Z,4.70
2019-01-06T14:49:34.653Z,4.72
2019-01-06T14:52:22.511Z,4.60
2019-01-06T14:55:20.094Z,4.72
2019-01-06T14:58:07.412Z,4.65
2019-01-06T15:00:56.349Z,4.40
2019-01-06T15:03:48.142Z,4.70
2019-01-06T15:06:54.927Z,5.30
2019-01-06T15:10:02.732Z,5.30
2019-01-06T15:12:50.294Z,5.67
2019-01-06T15:15:42.217Z,6.20
2019-01-06T15:18:34.127Z,6.78
2019-01-06T15:21:21.724Z,13.93
2019-01-06T15:24:09.829Z,28.35
2019-01-06T15:27:01.431Z,34.78
2019-01-06T15:29:57.325Z,37.88
2019-01-06T15:32:41.956Z,26.05
2019-01-06T15:35:29.675Z,22.42
2019-01-06T15:38:16.999Z,17.77
2019-01-06T15:41:17.599Z,14.13
2019-01-06T15:44:13.883Z,11.18
2019-01-06T15:47:14.844Z,9.30
2019-01-06T15:50:06.582Z,8.90
2019-01-06T15:52:58.324Z,6.67
2019-01-06T15:55:39.962Z,7.15
2019-01-06T15:58:27.423Z,7.03
2019-01-06T16:01:26.160Z,8.10
2019-01-06T16:04:17.806Z,16.28
2019-01-06T16:07:09.367Z,17.57
2019-01-06T16:10:10.400Z,20.70
2019-01-06T16:12:59.203Z,23.27
2019-01-06T16:15:46.845Z,24.60
2019-01-06T16:18:35.724Z,24.25
2019-01-06T16:21:25.714Z,22.48
2019-01-06T16:24:13.150Z,19.80
2019-01-06T16:27:05.033Z,20.50
2019-01-06T16:29:47.541Z,19.20
2019-01-06T16:32:46.671Z,19.80
2019-01-06T16:35:44.739Z,18.45
2019-01-06T16:38:31.929Z,19.62
2019-01-06T16:41:29.836Z,17.98
2019-01-06T16:44:15.318Z,17.65
2019-01-06T16:47:02.984Z,15.90
2019-01-06T16:49:50.399Z,15.03
2019-01-06T16:52:35.414Z,15.03
2019-01-06T16:55:30.610Z,14.85
2019-01-06T16:58:17.907Z,16.48
2019-01-06T17:01:09.943Z,16.15
2019-01-06T17:04:04.696Z,15.13
2019-01-06T17:06:59.655Z,16.02
2019-01-06T17:09:51.315Z,15.05
2019-01-06T17:12:43.051Z,14.78
2019-01-06T17:15:32.003Z,14.38
2019-01-06T17:18:36.192Z,14.60
2019-01-06T17:21:20.794Z,14.97
2019-01-06T17:24:13.647Z,15.10
2019-01-06T17:27:05.463Z,14.83
2019-01-06T17:29:52.915Z,14.73
2019-01-06T17:32:37.933Z,15.65
2019-01-06T17:35:25.674Z,15.80
2019-01-06T17:38:29.400Z,17.10
2019-01-06T17:41:30.326Z,18.17
2019-01-06T17:44:19.787Z,20.55
2019-01-06T17:47:14.415Z,23.00
2019-01-06T17:50:08.906Z,25.50
2019-01-06T17:52:56.254Z,28.25
2019-01-06T17:56:00.535Z,32.27
2019-01-06T17:58:45.040Z,39.73
2019-01-06T18:01:39.009Z,49.03
2019-01-06T18:04:26.319Z,52.67
2019-01-06T18:07:21.301Z,59.17
2019-01-06T18:10:08.598Z,71.20
2019-01-06T18:12:56.146Z,80.03
2019-01-06T18:15:43.391Z,84.32
2019-01-06T18:18:47.217Z,94.17
2019-01-06T18:21:40.387Z,94.83
2019-01-06T18:24:29.192Z,86.82
2019-01-06T18:27:17.692Z,80.83
2019-01-06T18:30:16.972Z,69.97
2019-01-06T18:33:12.009Z,61.58
2019-01-06T18:36:19.043Z,56.92
2019-01-06T18:39:06.758Z,56.98
2019-01-06T18:41:52.222Z,55.67
2019-01-06T18:44:40.066Z,55.98
2019-01-06T18:47:22.419Z,55.05
2019-01-06T18:50:23.641Z,46.87
2019-01-06T18:53:24.572Z,49.48
2019-01-06T18:56:25.264Z,44.83
2019-01-06T18:59:09.972Z,33.28
2019-01-06T19:02:10.672Z,29.02
2019-01-06T19:04:50.790Z,24.15
2019-01-06T19:07:38.252Z,23.90
2019-01-06T19:10:25.592Z,24.07
2019-01-06T19:13:12.867Z,24.00
2019-01-06T19:16:06.759Z,23.38
2019-01-06T19:18:55.550Z,22.98
2019-01-06T19:21:43.129Z,23.60
2019-01-06T19:24:33.279Z,24.10
2019-01-06T19:27:20.868Z,23.90
2019-01-06T19:30:09.655Z,23.52
2019-01-06T19:32:56.904Z,23.02
2019-01-06T19:35:40.203Z,23.47
2019-01-06T19:38:34.822Z,24.23
2019-01-06T19:41:14.304Z,24.40
2019-01-06T19:44:01.708Z,23.60
2019-01-06T19:46:48.959Z,24.77
2019-01-06T19:49:56.079Z,23.57
2019-01-06T19:52:43.607Z,23.57
2019-01-06T19:55:38.420Z,23.10
2019-01-06T19:58:29.636Z,23.83
2019-01-06T20:01:09.334Z,23.80
2019-01-06T20:03:56.883Z,23.25
2019-01-06T20:06:44.343Z,24.18
2019-01-06T20:09:48.235Z,20.12
2019-01-06T20:12:35.572Z,20.60
2019-01-06T20:15:23.433Z,20.07
2019-01-06T20:18:15.139Z,20.40
2019-01-06T20:21:08.979Z,19.98
2019-01-06T20:24:16.347Z,20.40
2019-01-06T20:27:17.211Z,20.02
2019-01-06T20:30:01.173Z,22.62
2019-01-06T20:32:43.142Z,23.45
2019-01-06T20:35:37.743Z,23.27
2019-01-06T20:38:25.312Z,23.22
2019-01-06T20:41:07.591Z,23.50
2019-01-06T20:44:05.324Z,24.30
2019-01-06T20:46:52.733Z,23.45
2019-01-06T20:49:40.063Z,25.02
2019-01-06T20:52:31.996Z,23.45
2019-01-06T20:55:26.829Z,23.15
2019-01-06T20:58:14.344Z,23.25
2019-01-06T21:01:09.055Z,24.50
2019-01-06T21:03:56.433Z,23.90
2019-01-06T21:06:43.753Z,23.18
2019-01-06T21:09:42.141Z,24.45
2019-01-06T21:12:29.568Z,24.00
2019-01-06T21:15:17.193Z,24.27
2019-01-06T21:18:15.453Z,23.12
2019-01-06T21:21:03.086Z,23.63
2019-01-06T21:23:50.912Z,24.85
2019-01-06T21:26:38.491Z,23.67
2019-01-06T21:29:30.893Z,23.63
2019-01-06T21:32:18.401Z,24.15
2019-01-06T21:35:05.796Z,24.27
2019-01-06T21:37:51.425Z,23.85
2019-01-06T21:40:38.713Z,24.47
2019-01-06T21:43:26.482Z,25.30
2019-01-06T21:46:14.183Z,25.45
2019-01-06T21:49:07.316Z,25.43
2019-01-06T21:51:56.133Z,25.97
2019-01-06T21:55:03.193Z,26.00
2019-01-06T21:57:48.310Z,26.63
2019-01-06T22:00:46.063Z,26.77
2019-01-06T22:03:33.397Z,28.27
2019-01-06T22:06:25.434Z,28.70
2019-01-06T22:09:07.812Z,28.25
2019-01-06T22:11:57.050Z,28.10
2019-01-06T22:14:44.465Z,28.20
2019-01-06T22:17:36.098Z,27.85
2019-01-06T22:20:23.809Z,28.67
2019-01-06T22:23:18.694Z,30.23
2019-01-06T22:26:13.792Z,30.50
2019-01-06T22:29:01.301Z,32.42
2019-01-06T22:31:53.558Z,33.85
2019-01-06T22:34:42.393Z,35.70
2019-01-06T22:37:37.148Z,36.45
2019-01-06T22:40:35.275Z,35.85
2019-01-06T22:43:24.325Z,37.58
2019-01-06T22:46:19.238Z,38.15
2019-01-06T22:49:17.307Z,41.68
2019-01-06T22:52:13.672Z,47.53
2019-01-06T22:55:00.897Z,52.73
2019-01-06T22:57:54.513Z,54.27
2019-01-06T23:01:05.577Z,58.90
2019-01-06T23:03:53.021Z,58.77
2019-01-06T23:06:40.122Z,60.92
2019-01-06T23:09:30.133Z,65.25
2019-01-06T23:12:15.970Z,68.25
2019-01-06T23:15:22.801Z,72.35
2019-01-06T23:18:08.374Z,77.30
2019-01-06T23:21:00.901Z,73.27
2019-01-06T23:23:52.556Z,70.15
2019-01-06T23:26:40.348Z,66.35
2019-01-06T23:29:29.169Z,59.60
2019-01-06T23:32:19.413Z,59.48
2019-01-06T23:35:04.956Z,56.77
2019-01-06T23:37:52.108Z,56.60
2019-01-06T23:40:49.317Z,52.40
2019-01-06T23:43:47.095Z,51.15
2019-01-06T23:46:39.265Z,50.88
2019-01-06T23:49:34.949Z,53.73
2019-01-06T23:52:26.952Z,62.73
2019-01-06T23:55:14.519Z,84.58
2019-01-06T23:58:02.124Z,90.62
